Aviation Digital Data Service (ADDS)

Output produced by TAFs form (0123 UTC 23 July 2017)
found at http://www.aviationweather.gov/adds/tafs/
 
METAR text: RJDC 230100Z 11006KT 9999 FEW020 BKN/// 29/26 Q1008
Conditions at: RJDC (YAMAGUCHI/UBE AR, JP) observed 0100 UTC 23 July 2017
Temperature: 29.0°C (84°F)
Dewpoint: 26.0°C (79°F) [RH = 84%]
Pressure (altimeter): 29.76 inches Hg (1008.0 mb)
Winds: from the ESE (110 degrees) at 7 MPH (6 knots; 3.1 m/s)
Visibility: 6 or more miles (10+ km)
Ceiling: at least 12,000 feet AGL
Clouds: few clouds at 2000 feet AGL
Weather: no significant weather observed at this time